Flight Track Log - Related Links

Times and Time Zones

All times are in EDT time to prevent confusion due to time zone crossing. See the UPS2592 flight status page for this flight to view local times or setup timezone preferences in your user account.

Time Position Orientation Groundspeed Altitude Reporting Facility
EDT Latitude Longitude Course Direction KTS MPH feet Rate Location/Type
Tue 04:38:42 PM 38.1810 -85.7470 218° Southwest 80 92  Level FlightAware ADS-B
Tue 04:39:02 PM 38.1700 -85.7430 164° South 165 190 1,857 Level FlightAware ADS-B
Tue 04:39:24 PM 38.1510 -85.7370 166° South 177 204 1,300 3,136 Climbing FlightAware ADS-B
Tue 04:39:46 PM 38.1330 -85.7330 170° South 188 216 2,300 2,211 Climbing FlightAware ADS-B
Tue 04:40:02 PM 38.1170 -85.7320 177° South 212 244 2,700 1,500 Climbing FlightAware ADS-B
Tue 04:40:14 PM 38.1050 -85.7330 184° South 230 265 3,000 1,200 Climbing FlightAware ADS-B
Tue 04:40:22 PM 38.0980 -85.7360 199° South 241 277 3,100 1,125 Climbing FlightAware ADS-B
Tue 04:40:30 PM 38.0900 -85.7430 215° Southwest 257 296 3,300 1,875 Climbing FlightAware ADS-B
Tue 04:40:38 PM 38.0840 -85.7530 233° Southwest 266 306 3,600 2,500 Climbing FlightAware ADS-B
Tue 04:40:42 PM 38.0810 -85.7580 233° Southwest 267 307 3,800 3,500 Climbing FlightAware ADS-B
Tue 04:40:50 PM 38.0780 -85.7700 252° West 270 311 4,300 3,529 Climbing FlightAware ADS-B
Tue 04:40:59 PM 38.0770 -85.7850 265° West 272 313 4,800 3,429 Climbing FlightAware ADS-B
Tue 04:41:11 PM 38.0770 -85.8020 270° West 272 313 5,500 3,000 Climbing FlightAware ADS-B
Tue 04:41:27 PM 38.0790 -85.8280 276° West 281 323 6,200 2,870 Climbing FlightAware ADS-B
Tue 04:41:34 PM 38.0840 -85.8400 298° West 284 327 6,600 3,474 Climbing FlightAware ADS-B
Tue 04:41:46 PM 38.0940 -85.8550 310° West 286 329 7,300 3,231 Climbing FlightAware ADS-B
Tue 04:42:00 PM 38.1110 -85.8680 329° Northwest 292 336 8,000 3,000 Climbing FlightAware ADS-B
Tue 04:42:08 PM 38.1200 -85.8710 345° North 291 335 8,400 3,200 Climbing FlightAware ADS-B
Tue 04:42:30 PM 38.1510 -85.8780 350° North 297 342 9,600 2,421 Climbing FlightAware ADS-B
Tue 04:43:05 PM 38.1990 -85.8880 351° North 329 379 10,700 1,588 Climbing FlightAware ADS-B
Tue 04:43:38 PM 38.2530 -85.8990 351° North 370 426 11,400 1,565 Climbing FlightAware ADS-B
Tue 04:44:14 PM 38.3170 -85.9130 350° North 393 452 12,500 2,143 Climbing FlightAware ADS-B
Tue 04:44:34 PM 38.3530 -85.9220 349° North 398 458 13,400 2,500 Climbing FlightAware ADS-B
Tue 04:44:50 PM 38.3800 -85.9370 336° Northwest 400 460 14,000 2,400 Climbing FlightAware ADS-B
Tue 04:45:04 PM 38.4000 -85.9580 321° Northwest 400 460 14,600 2,280 Climbing FlightAware ADS-B
Tue 04:45:40 PM 38.4540 -86.0110 322° Northwest 416 479 15,900 2,206 Climbing FlightAware ADS-B
Tue 04:46:12 PM 38.5060 -86.0510 329° Northwest 425 489 17,100 2,182 Climbing FlightAware ADS-B
Tue 04:46:46 PM 38.5640 -86.0980 328° Northwest 433 498 18,300 2,143 Climbing FlightAware ADS-B
Tue 04:47:22 PM 38.6270 -86.1470 329° Northwest 442 509 19,600 2,083 Climbing FlightAware ADS-B
Tue 04:47:58 PM 38.6900 -86.1970 328° Northwest 450 518 20,800 1,326 Climbing FlightAware ADS-B
Tue 04:48:48 PM 38.7720 -86.2630 328° Northwest 454 522 21,500 1,731 Climbing FlightAware ADS-B
Tue 04:48:50 PM 38.7780 -86.2770 299° West 457 526 22,300 3,000 Climbing FlightAware ADS-B
Tue 04:49:30 PM 38.8380 -86.3580 314° West 464 534 23,600 1,973 Climbing FlightAware ADS-B
Tue 04:50:03 PM 38.8870 -86.4240 314° West 462 532 24,700 1,971 Climbing FlightAware ADS-B
Tue 04:50:40 PM 38.9410 -86.4980 313° West 459 528 25,900 1,739 Climbing FlightAware ADS-B
Tue 04:51:12 PM 38.9880 -86.5610 314° West 461 531 26,700 1,304 Climbing FlightAware ADS-B
Tue 04:51:49 PM 39.0420 -86.6340 314° West 470 541 27,400 1,479 Climbing FlightAware ADS-B
Tue 04:52:25 PM 39.0970 -86.7110 313° West 464 534 28,500 1,739 Climbing FlightAware ADS-B
Tue 04:52:58 PM 39.1440 -86.7750 313° West 463 533 29,400 1,304 Climbing FlightAware ADS-B
Tue 04:53:34 PM 39.1970 -86.8450 314° West 465 535 30,000 500 Climbing FlightAware ADS-B
Tue 04:54:10 PM 39.2500 -86.9200 312° West 463 533 30,000  Level FlightAware ADS-B
Tue 04:54:42 PM 39.2960 -86.9820 314° West 459 528 30,000  Level FlightAware ADS-B
Tue 04:55:18 PM 39.3500 -87.0560 313° West 458 527 30,000  Level FlightAware ADS-B
Tue 04:55:54 PM 39.4020 -87.1280 313° West 457 526 30,000  Level FlightAware ADS-B
Tue 04:56:30 PM 39.4530 -87.1980 313° West 459 528 30,000  Level FlightAware ADS-B
Tue 04:57:03 PM 39.5010 -87.2670 312° West 458 527 30,000  Level FlightAware ADS-B
Tue 04:57:41 PM 39.5550 -87.3420 313° West 454 522 30,000  Level FlightAware ADS-B
Tue 04:58:12 PM 39.5920 -87.3990 310° West 452 520 30,000  Level FlightAware ADS-B
Tue 04:58:47 PM 39.6410 -87.4700 312° West 452 520 30,000  Level FlightAware ADS-B
Tue 04:59:23 PM 39.6960 -87.5490 312° West 453 521 30,000  Level FlightAware ADS-B
Tue 04:59:58 PM 39.7450 -87.6220 311° West 450 518 30,000  Level FlightAware ADS-B
Tue 05:00:34 PM 39.7940 -87.6930 312° West 449 517 30,000  Level FlightAware ADS-B
Tue 05:01:06 PM 39.8390 -87.7600 311° West 452 520 30,000  Level FlightAware ADS-B
Tue 05:01:46 PM 39.8920 -87.8370 312° West 449 517 30,000  Level FlightAware ADS-B
Tue 05:02:18 PM 39.9390 -87.9060 312° West 448 516 30,000  Level FlightAware ADS-B
Tue 05:02:54 PM 39.9870 -87.9770 311° West 447 514 30,000  Level FlightAware ADS-B
Tue 05:03:28 PM 40.0300 -88.0530 306° West 445 512 30,000  Level FlightAware ADS-B
Tue 05:04:02 PM 40.0670 -88.1270 303° West 445 512 30,000  Level FlightAware ADS-B
Tue 05:04:36 PM 40.1080 -88.2050 305° West 445 512 30,000  Level FlightAware ADS-B
Tue 05:05:12 PM 40.1480 -88.2830 304° West 447 514 30,000  Level FlightAware ADS-B
Tue 05:05:50 PM 40.1930 -88.3710 304° West 449 517 30,000  Level FlightAware ADS-B
Tue 05:06:22 PM 40.2290 -88.4440 303° West 449 517 30,000  Level FlightAware ADS-B
Tue 05:06:58 PM 40.2700 -88.5230 304° West 447 514 30,000  Level FlightAware ADS-B
Tue 05:07:34 PM 40.3100 -88.6020 304° West 449 517 30,000  Level FlightAware ADS-B
Tue 05:08:08 PM 40.3500 -88.6820 303° West 452 520 30,000  Level FlightAware ADS-B
Tue 05:08:42 PM 40.3900 -88.7600 304° West 453 521 30,000  Level FlightAware ADS-B
Tue 05:09:18 PM 40.4280 -88.8380 303° West 452 520 30,000  Level FlightAware ADS-B
Tue 05:09:56 PM 40.4750 -88.9290 304° West 451 519 30,000  Level FlightAware ADS-B
Tue 05:10:28 PM 40.5120 -89.0050 303° West 451 519 30,000  Level FlightAware ADS-B
Tue 05:10:54 PM 40.5410 -89.0640 303° West 450 518 30,000  Level FlightAware ADS-B
Tue 05:11:41 PM 40.5940 -89.1700 303° West 452 520 30,000  Level FlightAware ADS-B
Tue 05:12:19 PM 40.6370 -89.2570 303° West 451 519 30,000  Level FlightAware ADS-B
Tue 05:12:52 PM 40.6760 -89.3360 303° West 452 520 30,000 771 Level FlightAware ADS-B
Tue 05:13:29 PM 40.7170 -89.4190 303° West 447 514 30,900 1,565 Climbing FlightAware ADS-B
Tue 05:14:01 PM 40.7530 -89.4910 303° West 439 505 31,800 971 Climbing FlightAware ADS-B
Tue 05:14:37 PM 40.7910 -89.5700 302° West 441 507 32,000 164 Climbing FlightAware ADS-B
Tue 05:15:14 PM 40.8300 -89.6490 303° West 439 505 32,000  Level FlightAware ADS-B
Tue 05:15:45 PM 40.8690 -89.7280 303° West 438 504 32,000  Level FlightAware ADS-B
Tue 05:16:22 PM 40.9080 -89.8090 303° West 435 501 32,000  Level FlightAware ADS-B
Tue 05:16:59 PM 40.9470 -89.8900 303° West 434 499 32,000  Level FlightAware ADS-B
Tue 05:17:33 PM 40.9840 -89.9660 303° West 435 501 32,000  Level FlightAware ADS-B
Tue 05:18:01 PM 41.0120 -90.0300 300° West 434 499 32,000  Level FlightAware ADS-B
Tue 05:18:33 PM 41.0440 -90.1100 298° West 437 503 32,000  Level FlightAware ADS-B
Tue 05:19:11 PM 41.0790 -90.1980 298° West 438 504 32,000  Level FlightAware ADS-B
Tue 05:19:47 PM 41.1130 -90.2840 298° West 438 504 32,000  Level FlightAware ADS-B
Tue 05:20:21 PM 41.1440 -90.3620 298° West 439 505 32,000  Level FlightAware ADS-B
Tue 05:20:57 PM 41.1800 -90.4500 299° West 439 505 32,000  Level FlightAware ADS-B
Tue 05:21:31 PM 41.2120 -90.5330 297° West 437 503 32,000  Level FlightAware ADS-B
Tue 05:22:04 PM 41.2410 -90.6070 298° West 437 503 32,000  Level FlightAware ADS-B
Tue 05:22:42 PM 41.2770 -90.6980 298° West 437 503 32,000  Level FlightAware ADS-B
Tue 05:23:13 PM 41.3070 -90.7740 298° West 439 505 32,000  Level FlightAware ADS-B
Tue 05:23:50 PM 41.3420 -90.8650 297° West 439 505 32,000  Level FlightAware ADS-B
Tue 05:24:26 PM 41.3760 -90.9520 298° West 440 506 32,000  Level FlightAware ADS-B
Tue 05:25:03 PM 41.4110 -91.0410 298° West 441 507 32,000  Level FlightAware ADS-B
Tue 05:25:36 PM 41.4410 -91.1190 297° West 445 512 32,000  Level FlightAware ADS-B
Tue 05:26:06 PM 41.4690 -91.1920 297° West 445 512 32,000  Level FlightAware ADS-B
Tue 05:26:52 PM 41.5120 -91.3040 297° West 444 511 32,000  Level FlightAware ADS-B
Tue 05:27:26 PM 41.5440 -91.3870 297° West 445 512 32,000  Level FlightAware ADS-B
Tue 05:28:01 PM 41.5780 -91.4750 297° West 446 513 32,000  Level FlightAware ADS-B
Tue 05:28:38 PM 41.6120 -91.5660 297° West 445 512 32,000  Level FlightAware ADS-B
Tue 05:29:14 PM 41.6470 -91.6550 298° West 447 514 32,000  Level FlightAware ADS-B
Tue 05:29:46 PM 41.6740 -91.7290 296° West 447 514 32,000  Level FlightAware ADS-B
Tue 05:30:22 PM 41.7090 -91.8200 297° West 448 516 32,000  Level FlightAware ADS-B
Tue 05:30:57 PM 41.7410 -91.9070 296° West 450 518 32,000  Level FlightAware ADS-B
Tue 05:31:31 PM 41.7730 -91.9920 297° West 451 519 32,000  Level FlightAware ADS-B
Tue 05:32:09 PM 41.8100 -92.0890 297° West 451 519 32,000  Level FlightAware ADS-B
Tue 05:32:43 PM 41.8410 -92.1710 297° West 449 517 32,000  Level FlightAware ADS-B
Tue 05:33:19 PM 41.8730 -92.2580 296° West 447 514 32,000  Level FlightAware ADS-B
Tue 05:33:55 PM 41.9070 -92.3520 296° West 443 510 32,000  Level FlightAware ADS-B
Tue 05:34:26 PM 41.9360 -92.4290 297° West 441 507 32,000  Level FlightAware ADS-B
Tue 05:35:02 PM 41.9670 -92.5150 296° West 441 507 32,000  Level FlightAware ADS-B
Tue 05:35:39 PM 42.0020 -92.6080 297° West 441 507 32,000  Level FlightAware ADS-B
Tue 05:36:11 PM 42.0310 -92.6870 296° West 442 509 32,000  Level FlightAware ADS-B
Tue 05:36:47 PM 42.0630 -92.7750 296° West 444 511 32,000  Level FlightAware ADS-B
Tue 05:37:21 PM 42.0940 -92.8600 296° West 445 512 32,000  Level FlightAware ADS-B
Tue 05:37:32 PM 42.1037 -92.8872 296° West 445 512 32,000  Level FlightAware ADS-B (LPVM)
Tue 05:38:34 PM 42.1600 -93.0420 296° West 447 514 32,000  Level FlightAware ADS-B
Tue 05:39:10 PM 42.1920 -93.1320 296° West 449 517 32,000  Level FlightAware ADS-B
Tue 05:39:41 PM 42.2200 -93.2110 296° West 450 518 32,000  Level FlightAware ADS-B
Tue 05:40:18 PM 42.2530 -93.3020 296° West 451 519 32,000  Level FlightAware ADS-B
Tue 05:40:22 PM 42.2576 -93.3144 296° West 451 519 32,000  Level FlightAware ADS-B (LPVM)
Tue 05:40:53 PM 42.2860 -93.3930 296° West 449 517 32,000  Level FlightAware ADS-B
Tue 05:41:30 PM 42.3190 -93.4860 296° West 447 514 32,000  Level FlightAware ADS-B
Tue 05:42:02 PM 42.3470 -93.5640 296° West 445 512 32,000  Level FlightAware ADS-B
Tue 05:42:39 PM 42.3800 -93.6600 295° West 445 512 32,000  Level FlightAware ADS-B
Tue 05:43:12 PM 42.4100 -93.7430 296° West 446 513 32,000  Level FlightAware ADS-B
Tue 05:43:45 PM 42.4400 -93.8280 296° West 448 516 32,000  Level FlightAware ADS-B
Tue 05:44:22 PM 42.4720 -93.9200 295° West 450 518 32,000  Level FlightAware ADS-B
Tue 05:44:35 PM 42.4837 -93.9532 296° West 451 519 32,000  Level FlightAware ADS-B
Tue 05:44:57 PM 42.5029 -94.0096 295° West 452 520 32,000  Level FlightAware ADS-B
Tue 05:45:34 PM 42.5300 -94.1070 291° West 451 519 32,000  Level FlightAware ADS-B
Tue 05:46:08 PM 42.5533 -94.1897 291° West 452 520 32,000  Level FlightAware ADS-B
Tue 05:46:45 PM 42.5834 -94.2956 291° West 452 520 32,000  Level FlightAware ADS-B
Tue 05:47:19 PM 42.6080 -94.3860 290° West 452 520 32,000  Level FlightAware ADS-B
Tue 05:47:51 PM 42.6320 -94.4710 291° West 453 521 32,000  Level FlightAware ADS-B
Tue 05:48:19 PM 42.6512 -94.5396 291° West 453 521 32,000  Level FlightAware ADS-B
Tue 05:48:49 PM 42.6752 -94.6277 290° West 453 521 32,000  Level FlightAware ADS-B
Tue 05:49:20 PM 42.6975 -94.7077 291° West 454 522 32,000  Level FlightAware ADS-B
Tue 05:50:15 PM 42.7370 -94.8550 290° West 456 525 32,000  Level FlightAware ADS-B
Tue 05:50:28 PM 42.7468 -94.8899 291° West 456 525 32,000  Level FlightAware ADS-B
Tue 05:50:58 PM 42.7696 -94.9734 290° West 456 525 32,000  Level FlightAware ADS-B
Tue 05:51:28 PM 42.7927 -95.0533 292° West 456 525 32,000  Level FlightAware ADS-B
Tue 05:51:59 PM 42.8170 -95.1300 293° West 455 524 32,000  Level FlightAware ADS-B
Tue 05:52:38 PM 42.8486 -95.2392 292° West 456 525 32,000  Level FlightAware ADS-B
Tue 05:53:08 PM 42.8720 -95.3190 292° West 454 522 32,000  Level FlightAware ADS-B
Tue 05:53:39 PM 42.8954 -95.3985 292° West 453 521 32,000  Level FlightAware ADS-B
Tue 05:54:20 PM 42.9260 -95.5040 292° West 452 520 32,000  Level FlightAware ADS-B
Tue 05:54:48 PM 42.9491 -95.5841 292° West 454 522 32,000  Level FlightAware ADS-B
Tue 05:55:18 PM 42.9723 -95.6638 292° West 452 520 32,000  Level FlightAware ADS-B
Tue 05:55:48 PM 42.9954 -95.7434 292° West 451 519 32,000  Level FlightAware ADS-B
Tue 05:55:56 PM 42.9900 -95.7248 112° Southeast 451 519 32,000  Level FlightAware ADS-B (LPVM)
Tue 05:56:37 PM 43.0320 -95.8700 292° West 449 517 32,000  Level FlightAware ADS-B
Tue 05:56:59 PM 43.0484 -95.9260 292° West 450 518 32,000  Level FlightAware ADS-B
Tue 05:57:29 PM 43.0720 -96.0104 291° West 450 518 32,000  Level FlightAware ADS-B
Tue 05:58:00 PM 43.0947 -96.0899 291° West 449 517 32,000  Level FlightAware ADS-B
Tue 05:58:57 PM 43.1370 -96.2410 291° West 448 516 32,000  Level FlightAware ADS-B
Tue 05:59:09 PM 43.1458 -96.2700 293° West 450 518 32,000  Level FlightAware ADS-B
Tue 05:59:39 PM 43.1693 -96.3525 291° West 450 518 32,000  Level FlightAware ADS-B
Tue 06:00:10 PM 43.1921 -96.4350 291° West 452 520 32,000  Level FlightAware ADS-B
Tue 06:00:41 PM 43.2140 -96.5120 291° West 453 521 32,000  Level FlightAware ADS-B
Tue 06:01:22 PM 43.2441 -96.6200 291° West 454 522 32,000  Level FlightAware ADS-B
Tue 06:02:28 PM 43.2960 -96.8060 291° West 454 522 32,000  Level FlightAware ADS-B
Tue 06:03:03 PM 43.3210 -96.8970 291° West 453 521 32,000  Level FlightAware ADS-B
Tue 06:03:33 PM 43.3440 -96.9807 291° West 454 522 32,000  Level FlightAware ADS-B
Tue 06:04:03 PM 43.3663 -97.0614 291° West 454 522 32,000  Level FlightAware ADS-B
Tue 06:04:49 PM 43.3990 -97.1830 290° West 454 522 32,000  Level FlightAware ADS-B
Tue 06:05:21 PM 43.4230 -97.2720 290° West 454 522 32,000  Level FlightAware ADS-B
Tue 06:05:56 PM 43.4500 -97.3700 291° West 455 524 32,000  Level FlightAware ADS-B
Tue 06:06:35 PM 43.4770 -97.4730 290° West 455 524 32,000  Level FlightAware ADS-B
Tue 06:07:07 PM 43.5010 -97.5580 291° West 455 524 32,000  Level FlightAware ADS-B
Tue 06:07:40 PM 43.5220 -97.6390 290° West 455 524 32,000  Level FlightAware ADS-B
Tue 06:08:16 PM 43.5440 -97.7230 290° West 455 524 32,000  Level FlightAware ADS-B
Tue 06:08:53 PM 43.5660 -97.8090 289° West 455 524 32,000  Level FlightAware ADS-B
Tue 06:09:29 PM 43.5880 -97.8920 290° West 455 524 32,000  Level FlightAware ADS-B
Tue 06:10:05 PM 43.6294 -98.0431 291° West 453 521 32,000  Level FlightAware ADS-B
Tue 06:10:41 PM 43.6547 -98.1407 290° West 453 521 32,000  Level FlightAware ADS-B
Tue 06:11:19 PM 43.6560 -98.1480 284° West 455 524 32,000  Level FlightAware ADS-B
Tue 06:12:00 PM 43.6810 -98.2430 290° West 455 524 32,000  Level FlightAware ADS-B
Tue 06:12:36 PM 43.7030 -98.3270 290° West 455 524 32,000  Level FlightAware ADS-B
Tue 06:13:10 PM 43.7230 -98.4060 289° West 455 524 32,000  Level FlightAware ADS-B
Tue 06:13:46 PM 43.7450 -98.4890 290° West 455 524 32,000  Level FlightAware ADS-B
Tue 06:14:23 PM 43.7680 -98.5760 290° West 455 524 32,000  Level FlightAware ADS-B
Tue 06:14:59 PM 43.7900 -98.6590 290° West 455 524 32,000  Level FlightAware ADS-B
Tue 06:15:35 PM 43.8120 -98.7430 290° West 455 524 32,000  Level FlightAware ADS-B
Tue 06:16:11 PM 43.8340 -98.8270 290° West 455 524 32,000  Level FlightAware ADS-B
Tue 06:16:47 PM 43.8560 -98.9110 290° West 455 524 32,000  Level FlightAware ADS-B
Tue 06:17:28 PM 43.9325 -99.2269 290° West 450 518 32,000  Level Denver Center
Tue 06:18:11 PM 43.9561 -99.3269 288° West 450 518 32,000  Level Minneapolis Center
Tue 06:19:25 PM 44.0056 -99.5258 289° West 453 521 32,000  Level Minneapolis Center
Tue 06:20:27 PM 44.0547 -99.7247 289° West 453 521 32,000  Level Minneapolis Center
Tue 06:21:29 PM 44.0950 -99.8914 289° West 453 521 32,000  Level Minneapolis Center
Tue 06:22:31 PM 44.1353 -100.0567 289° West 451 519 32,000  Level Minneapolis Center
Tue 06:23:34 PM 44.1747 -100.2217 288° West 449 517 32,000  Level Minneapolis Center
Tue 06:24:36 PM 44.2136 -100.3867 288° West 449 517 32,000  Level Minneapolis Center
Tue 06:25:38 PM 44.2606 -100.5875 288° West 451 519 32,000  Level Minneapolis Center
Tue 06:26:40 PM 44.3000 -100.7542 288° West 451 519 32,000  Level Minneapolis Center
Tue 06:27:42 PM 44.3389 -100.9200 288° West 450 518 32,000  Level Minneapolis Center
Tue 06:28:44 PM 44.3761 -101.0853 288° West 448 516 32,000  Level Minneapolis Center
Tue 06:29:46 PM 44.4131 -101.2519 287° West 447 514 32,000  Level Minneapolis Center
Tue 06:30:48 PM 44.4503 -101.4183 287° West 447 514 32,000  Level Minneapolis Center
Tue 06:31:50 PM 44.4881 -101.5839 288° West 447 514 32,000  Level Minneapolis Center
Tue 06:32:52 PM 44.5333 -101.7808 288° West 445 512 32,000  Level Minneapolis Center
Tue 06:33:55 PM 44.5736 -101.9481 289° West 447 514 32,000  Level Minneapolis Center
Tue 06:34:57 PM 44.6100 -102.1128 287° West 444 511 32,000  Level Minneapolis Center
Tue 06:35:59 PM 44.6461 -102.2783 287° West 443 510 32,000  Level Minneapolis Center
Tue 06:37:01 PM 44.6819 -102.4433 287° West 442 509 32,000  Level Minneapolis Center
Tue 06:38:03 PM 44.7164 -102.6083 286° West 441 507 32,000  Level Minneapolis Center
Tue 06:39:05 PM 44.7592 -102.8064 287° West 441 507 32,000  Level Minneapolis Center
Tue 06:40:07 PM 44.7933 -102.9703 286° West 438 504 32,000  Level Minneapolis Center
Tue 06:41:09 PM 44.8278 -103.1344 287° West 437 503 32,000  Level Minneapolis Center
Tue 06:42:11 PM 44.8619 -103.2972 287° West 434 499 32,000  Level Minneapolis Center
Tue 06:42:49 PM 44.8828 -103.4022 286° West 433 498 32,000  Level Salt Lake Center
Tue 06:43:51 PM 44.9150 -103.5586 286° West 435 501 32,000  Level Salt Lake Center
Tue 06:44:21 PM 44.9300 -103.6386 285° West 434 499 32,000  Level Denver Center
Tue 06:44:52 PM 44.9517 -103.7400 287° West 433 498 32,000  Level Salt Lake Center
Tue 06:45:54 PM 44.9842 -103.8986 286° West 437 503 32,000  Level Salt Lake Center
Tue 06:46:56 PM 45.0208 -104.0814 286° West 435 501 32,000  Level Salt Lake Center
Tue 06:47:57 PM 45.0519 -104.2389 286° West 436 502 32,000  Level Salt Lake Center
Tue 06:53:22 PM 45.2260 -105.1480 286° West 444 511 32,000  Level FlightAware ADS-B
Tue 06:53:57 PM 45.2440 -105.2460 285° West 441 507 32,000  Level FlightAware ADS-B
Tue 06:54:34 PM 45.2630 -105.3460 285° West 439 505 32,000  Level FlightAware ADS-B
Tue 06:55:09 PM 45.2820 -105.4460 285° West 437 503 32,000  Level FlightAware ADS-B
Tue 06:55:43 PM 45.2990 -105.5410 284° West 435 501 32,000  Level FlightAware ADS-B
Tue 06:56:19 PM 45.3160 -105.6350 284° West 438 504 32,000  Level FlightAware ADS-B
Tue 06:56:53 PM 45.3340 -105.7360 284° West 445 512 32,000  Level FlightAware ADS-B
Tue 06:57:29 PM 45.3520 -105.8390 284° West 449 517 32,000  Level FlightAware ADS-B
Tue 06:58:04 PM 45.3680 -105.9400 283° West 453 521 32,000  Level FlightAware ADS-B
Tue 06:58:39 PM 45.3850 -106.0420 283° West 450 518 32,000 -1,147 Level FlightAware ADS-B
Tue 06:59:12 PM 45.4010 -106.1360 284° West 448 516 30,700 -2,294 Descending FlightAware ADS-B
Tue 06:59:47 PM 45.4170 -106.2330 283° West 444 511 29,400 -2,667 Descending FlightAware ADS-B
Tue 07:00:24 PM 45.4350 -106.3420 283° West 448 516 27,500 -2,743 Descending FlightAware ADS-B
Tue 07:00:57 PM 45.4500 -106.4360 283° West 442 509 26,200 -2,261 Descending FlightAware ADS-B
Tue 07:01:33 PM 45.4660 -106.5370 283° West 433 498 24,900 -2,229 Descending FlightAware ADS-B
Tue 07:02:07 PM 45.4810 -106.6310 283° West 428 493 23,600 -2,167 Descending FlightAware ADS-B
Tue 07:02:45 PM 45.4970 -106.7310 283° West 416 479 22,300 -2,229 Descending FlightAware ADS-B
Tue 07:03:17 PM 45.5170 -106.8170 288° West 421 484 21,000 -2,087 Descending FlightAware ADS-B
Tue 07:03:54 PM 45.5490 -106.9080 297° West 409 471 19,900 -1,479 Descending FlightAware ADS-B
Tue 07:04:30 PM 45.5790 -106.9930 297° West 389 448 19,200 -1,075 Descending FlightAware ADS-B
Tue 07:05:01 PM 45.6040 -107.0600 298° West 384 442 18,700 -1,588 Descending FlightAware ADS-B
Tue 07:05:38 PM 45.6360 -107.1440 299° West 384 442 17,400 -1,890 Descending FlightAware ADS-B
Tue 07:06:14 PM 45.6660 -107.2240 298° West 380 437 16,400 -1,343 Descending FlightAware ADS-B
Tue 07:06:45 PM 45.6970 -107.2890 304° West 382 440 15,900 -1,385 Descending FlightAware ADS-B
Tue 07:07:19 PM 45.7330 -107.3580 307° West 379 436 14,900 -1,833 Descending FlightAware ADS-B
Tue 07:07:57 PM 45.7750 -107.4290 310° West 369 425 13,700 -2,091 Descending FlightAware ADS-B
Tue 07:08:25 PM 45.8060 -107.4780 312° West 365 420 12,600 -2,031 Descending FlightAware ADS-B
Tue 07:09:02 PM 45.8530 -107.5390 318° Northwest 350 403 11,500 -1,787 Descending FlightAware ADS-B
Tue 07:09:12 PM 45.8620 -107.5600 302° West 340 391 11,200 -2,143 Descending FlightAware ADS-B
Tue 07:09:30 PM 45.8720 -107.5950 292° West 327 376 10,500 -2,571 Descending FlightAware ADS-B
Tue 07:09:40 PM 45.8730 -107.6160 274° West 322 371 10,000 -1,875 Descending FlightAware ADS-B
Tue 07:10:02 PM 45.8700 -107.6580 264° West 317 365 9,500 -1,636 Descending FlightAware ADS-B
Tue 07:10:24 PM 45.8770 -107.7070 282° West 318 366 8,800 -1,463 Descending FlightAware ADS-B
Tue 07:10:43 PM 45.8840 -107.7450 285° West 305 351 8,500 -789 Descending FlightAware ADS-B
Tue 07:11:02 PM 45.8900 -107.7800 284° West 296 341 8,300 -360 Descending FlightAware ADS-B
Tue 07:11:33 PM 45.9010 -107.8380 285° West 284 327 8,200 -107 Descending FlightAware ADS-B
Tue 07:11:58 PM 45.9080 -107.8770 284° West 284 327 8,200  Level FlightAware ADS-B
Tue 07:12:18 PM 45.9180 -107.9250 287° West 300 345 8,200  Level FlightAware ADS-B
Tue 07:12:38 PM 45.9260 -107.9610 288° West 298 343 8,200  Level FlightAware ADS-B
Tue 07:12:58 PM 45.9340 -107.9990 287° West 300 345 8,200  Level FlightAware ADS-B
Tue 07:13:13 PM 45.9400 -108.0280 287° West 300 345 8,200  Level FlightAware ADS-B
Tue 07:13:34 PM 45.9480 -108.0680 286° West 298 343 8,200  Level FlightAware ADS-B
Tue 07:13:54 PM 45.9560 -108.1060 287° West 298 343 8,200  Level FlightAware ADS-B
Tue 07:14:18 PM 45.9650 -108.1520 286° West 301 346 8,200  Level FlightAware ADS-B
Tue 07:14:38 PM 45.9730 -108.1880 288° West 303 349 8,200  Level FlightAware ADS-B
Tue 07:14:50 PM 45.9760 -108.2140 279° West 298 343 8,200 -833 Level FlightAware ADS-B
Tue 07:15:14 PM 45.9750 -108.2610 268° West 290 334 7,700 -1,227 Descending FlightAware ADS-B
Tue 07:15:34 PM 45.9740 -108.2970 268° West 288 331 7,300 -1,231 Descending FlightAware ADS-B
Tue 07:15:53 PM 45.9720 -108.3370 266° West 286 329 6,900 -667 Descending FlightAware ADS-B
Tue 07:16:28 PM 45.9700 -108.3920 267° West 285 328 6,700 -336 Descending FlightAware ADS-B
Tue 07:17:58 PM 45.9610 -108.5590 266° West 254 292 6,200 -280 Descending FlightAware ADS-B
Tue 07:18:15 PM 45.9590 -108.5870 264° West 241 277 6,200  Level FlightAware ADS-B
Tue 07:18:34 PM 45.9540 -108.6160 256° West 233 268 6,200  Level FlightAware ADS-B
Tue 07:18:54 PM 45.9460 -108.6440 248° West 225 259 6,200  Level FlightAware ADS-B
Tue 07:19:03 PM 45.9410 -108.6560 239° Southwest 222 255 6,200  Level FlightAware ADS-B
Tue 07:19:18 PM 45.9320 -108.6710 229° Southwest 211 243 6,200 214 Level FlightAware ADS-B
Tue 07:19:31 PM 45.9220 -108.6830 220° Southwest 197 227 6,300  Climbing FlightAware ADS-B
Tue 07:19:50 PM 45.9080 -108.6970 215° Southwest 192 221 6,200  Descending FlightAware ADS-B
Tue 07:20:14 PM 45.8910 -108.7110 210° Southwest 166 191 6,300 -162 Climbing FlightAware ADS-B
Tue 07:20:27 PM 45.8810 -108.7170 203° Southwest 157 181 6,100 -900 Descending FlightAware ADS-B
Tue 07:20:34 PM 45.8770 -108.7180 190° South 154 177 6,000 -375 Descending FlightAware ADS-B
Tue 07:20:43 PM 45.8710 -108.7180 180° South 148 170 6,000  Level FlightAware ADS-B
Tue 07:20:47 PM 45.8680 -108.7170 167° South 143 165 6,000 -545 Level FlightAware ADS-B
Tue 07:20:54 PM 45.8640 -108.7150 161° South 134 154 5,900 -400 Descending FlightAware ADS-B
Tue 07:21:02 PM 45.8590 -108.7120 157° South 129 148 5,900  Level FlightAware ADS-B
Tue 07:21:07 PM 45.8570 -108.7090 134° Southeast 129 148 5,900  Level FlightAware ADS-B
Tue 07:21:15 PM 45.8540 -108.7030 126° Southeast 130 150 5,900 -375 Level FlightAware ADS-B
Tue 07:21:23 PM 45.8520 -108.6970 116° Southeast 134 154 5,800 -750 Descending FlightAware ADS-B
Tue 07:21:39 PM 45.8490 -108.6850 110° East 136 157 5,600 -333 Descending FlightAware ADS-B
Tue 07:22:17 PM 45.8410 -108.6560 112° Southeast 135 155 5,500 -800 Descending FlightAware ADS-B
Tue 07:22:54 PM 45.8328 -108.6267 112° Southeast 135 155 4,600 -970 Descending Salt Lake Center
Tue 07:23:56 PM 45.8178 -108.5728 112° Southeast 137 158 3,900 -677 Descending Salt Lake Center

Login

Don't have an account? Register now (free) for customized features, flight alerts, and more!